Terminal Aerodrome Forecast
Issued by NWS Kansas City/Pleasant Hill, MO

Home | Current Version | Previous Version | Text Only | Print | Product List | Glossary On
Versions: 1 2 3 4 5 6 7 8 9 10 11 12 13 14 15 16
813
FTUS43 KEAX 272325
TAFMCI
TAF
KMCI 272325Z 2800/2824 01007KT P6SM SCT080
     FM281100 33007KT P6SM BKN090
     FM281600 29012KT P6SM SCT140=

USA.gov is the U.S. government's official web portal to all federal, state and local government web resources and services.